TimeCDT,TemperatureF,Dew PointF,Humidity,Sea Level PressureIn,VisibilityMPH,Wind Direction,Wind SpeedMPH,Gust SpeedMPH,PrecipitationIn,Events,Conditions,WindDirDegrees,DateUTC
12:55 AM,75.9,66.0,71,30.00,10.0,South,8.1,-,N/A,,Mostly Cloudy,190,2013-07-08 05:55:00
1:55 AM,75.9,66.0,71,29.99,10.0,SSW,8.1,-,N/A,,Clear,200,2013-07-08 06:55:00
2:55 AM,75.0,66.0,73,29.98,10.0,SSW,9.2,-,N/A,,Clear,200,2013-07-08 07:55:00
3:55 AM,75.0,64.9,71,29.98,10.0,SSW,9.2,-,N/A,,Clear,210,2013-07-08 08:55:00
4:55 AM,75.0,64.9,71,29.99,10.0,SSW,8.1,-,N/A,,Scattered Clouds,210,2013-07-08 09:55:00
5:44 AM,75.2,64.4,69,30.03,10.0,West,4.6,-,N/A,Thunderstorm,Mostly Cloudy,270,2013-07-08 10:44:00
5:55 AM,75.0,64.9,71,30.02,10.0,North,3.5,-,N/A,Thunderstorm,Overcast,350,2013-07-08 10:55:00
6:12 AM,73.4,66.2,78,30.03,10.0,ENE,4.6,-,N/A,,Overcast,60,2013-07-08 11:12:00
6:55 AM,73.9,66.0,76,30.00,10.0,South,8.1,-,N/A,,Mostly Cloudy,190,2013-07-08 11:55:00
7:55 AM,75.0,66.0,73,30.02,10.0,SSW,9.2,-,N/A,,Mostly Cloudy,200,2013-07-08 12:55:00
8:55 AM,75.9,66.9,74,30.04,10.0,Calm,Calm,-,N/A,,Partly Cloudy,0,2013-07-08 13:55:00
9:55 AM,79.0,69.1,72,30.04,10.0,South,4.6,-,N/A,,Mostly Cloudy,190,2013-07-08 14:55:00
10:55 AM,80.1,71.1,74,30.05,10.0,SSW,6.9,-,N/A,,Mostly Cloudy,200,2013-07-08 15:55:00
11:55 AM,78.1,71.1,79,30.06,9.0,SW,5.8,-,N/A,,Overcast,220,2013-07-08 16:55:00
12:55 PM,81.0,72.0,74,30.04,10.0,SSW,6.9,-,0.00,,Mostly Cloudy,210,2013-07-08 17:55:00
1:55 PM,82.9,71.1,67,30.03,10.0,SW,10.4,17.3,N/A,,Partly Cloudy,220,2013-07-08 18:55:00
2:55 PM,87.1,71.1,59,30.02,10.0,SW,13.8,20.7,N/A,,Partly Cloudy,220,2013-07-08 19:55:00
3:55 PM,87.1,72.0,61,30.01,10.0,SSW,12.7,-,N/A,,Clear,210,2013-07-08 20:55:00
4:55 PM,88.0,71.1,57,30.01,10.0,SSW,12.7,18.4,N/A,,Partly Cloudy,210,2013-07-08 21:55:00
5:55 PM,88.0,70.0,55,30.01,10.0,SW,8.1,-,N/A,,Clear,220,2013-07-08 22:55:00
6:55 PM,82.9,70.0,65,30.00,10.0,SSW,5.8,-,N/A,,Clear,200,2013-07-08 23:55:00
7:55 PM,81.0,71.1,72,30.00,10.0,South,5.8,-,N/A,,Partly Cloudy,190,2013-07-09 00:55:00
8:55 PM,81.0,70.0,69,29.99,10.0,SSW,5.8,-,N/A,,Clear,200,2013-07-09 01:55:00
9:55 PM,80.1,70.0,71,30.00,10.0,SSW,4.6,-,N/A,,Clear,200,2013-07-09 02:55:00
10:55 PM,80.1,71.1,74,30.01,10.0,SSW,6.9,-,N/A,,Clear,210,2013-07-09 03:55:00
11:55 PM,80.1,71.1,74,30.00,10.0,SSW,6.9,-,N/A,,Partly Cloudy,200,2013-07-09 04:55:00